Time;durP1;ratioP1;P1;durP2;ratioP2;P2;SDS_P1;SDS_P2;PMS_P1;PMS_P2;Temp;Humidity;BMP_temperature;BMP_pressure;BME280_temperature;BME280_humidity;BME280_pressure;Samples;Min_cycle;Max_cycle;Signal;HPM_P1;HPM_P2
2022/04/23 00:01:34;;;;;;;4.03;2.60;;;;;;;16.81;49.05;93654.94;5072902;28;20226;-74
2022/04/23 00:04:01;;;;;;;3.27;2.50;;;;;;;16.75;49.16;93656.53;5072833;28;20196;-75
2022/04/23 00:06:28;;;;;;;9.83;2.40;;;;;;;16.79;49.17;93642.19;5072338;28;20201;-74
2022/04/23 00:08:55;;;;;;;4.43;2.37;;;;;;;16.81;49.02;93665.25;5072198;28;20295;-74
2022/04/23 00:11:22;;;;;;;2.90;2.30;;;;;;;16.80;48.98;93637.84;5072885;28;20277;-75
2022/04/23 00:13:49;;;;;;;4.83;2.60;;;;;;;16.83;49.18;93659.88;5072110;28;20281;-75
2022/04/23 00:16:17;;;;;;;4.43;2.20;;;;;;;16.79;49.17;93647.38;5072571;28;20190;-75
2022/04/23 00:18:44;;;;;;;5.27;2.37;;;;;;;16.86;48.95;93649.94;5072152;28;20694;-75
2022/04/23 00:21:11;;;;;;;4.57;2.47;;;;;;;16.87;49.01;93663.66;5072075;28;20218;-74
2022/04/23 00:23:39;;;;;;;7.03;2.37;;;;;;;16.87;48.99;93661.84;5072076;28;20202;-74
2022/04/23 00:26:06;;;;;;;5.53;2.40;;;;;;;16.86;49.00;93668.03;5071949;28;20221;-76
2022/04/23 00:28:33;;;;;;;3.87;2.10;;;;;;;16.89;49.10;93659.09;5071895;28;20248;-74
2022/04/23 00:31:00;;;;;;;4.87;2.27;;;;;;;16.89;48.92;93664.25;5072019;28;20194;-74
2022/04/23 00:33:29;;;;;;;4.43;2.50;;;;;;;16.91;48.92;93664.84;5072094;28;20218;-76
2022/04/23 00:35:55;;;;;;;3.50;2.10;;;;;;;16.90;48.68;93674.38;5071413;28;20186;-74
2022/04/23 00:38:23;;;;;;;4.27;2.30;;;;;;;16.91;48.84;93663.03;5072337;28;20193;-77
2022/04/23 00:40:50;;;;;;;3.80;2.40;;;;;;;16.90;48.83;93651.13;5071870;28;20584;-74
2022/04/23 00:43:27;;;;;;;3.00;2.30;;;;;;;16.89;48.98;93656.50;5071755;28;20194;-75
2022/04/23 00:45:54;;;;;;;3.00;2.13;;;;;;;16.88;48.89;93657.47;5071382;28;20712;-75
2022/04/23 00:48:21;;;;;;;4.40;2.10;;;;;;;16.85;48.72;93666.44;5072034;28;20182;-74
2022/04/23 00:50:50;;;;;;;3.53;2.03;;;;;;;16.76;48.88;93647.78;5071762;28;20178;-74
2022/04/23 00:53:19;;;;;;;4.07;2.40;;;;;;;16.77;48.80;93656.31;5071797;28;20201;-74
2022/04/23 00:55:47;;;;;;;5.87;2.20;;;;;;;16.81;48.96;93657.50;5071219;28;20194;-75
2022/04/23 00:58:16;;;;;;;4.97;2.20;;;;;;;16.79;48.97;93662.84;5071329;28;20194;-74
2022/04/23 01:00:43;;;;;;;10.23;2.20;;;;;;;16.79;48.85;93667.22;5071369;28;20226;-75
2022/04/23 01:03:12;;;;;;;6.37;2.53;;;;;;;16.77;48.97;93669.22;5071074;28;20191;-75
2022/04/23 01:05:39;;;;;;;3.30;2.00;;;;;;;16.63;48.94;93641.81;5071711;28;20182;-75
2022/04/23 01:08:07;;;;;;;3.23;2.17;;;;;;;16.76;49.09;93675.41;5071112;28;20193;-76
2022/04/23 01:10:35;;;;;;;4.23;2.70;;;;;;;16.79;48.92;93687.88;5071170;28;20190;-75
2022/04/23 01:13:02;;;;;;;3.77;2.13;;;;;;;16.79;49.12;93669.81;5070785;28;20194;-75
2022/04/23 01:15:29;;;;;;;3.57;2.33;;;;;;;16.80;48.74;93686.91;5071480;28;20183;-76
2022/04/23 01:17:56;;;;;;;4.40;2.37;;;;;;;16.80;48.91;93668.84;5071107;28;20237;-76
2022/04/23 01:20:25;;;;;;;4.60;2.63;;;;;;;16.80;49.08;93672.22;5071175;28;20236;-76
2022/04/23 01:22:53;;;;;;;5.37;2.50;;;;;;;16.83;48.85;93683.13;5070909;28;20263;-76
2022/04/23 01:25:22;;;;;;;4.03;2.43;;;;;;;16.80;48.75;93661.88;5071385;28;20194;-75
2022/04/23 01:27:52;;;;;;;4.93;2.40;;;;;;;16.79;48.90;93657.69;5070544;28;20190;-76
2022/04/23 01:30:19;;;;;;;3.03;2.37;;;;;;;16.79;48.80;93680.13;5070924;28;20186;-76
2022/04/23 01:32:45;;;;;;;4.20;2.40;;;;;;;16.79;48.84;93647.38;5070695;28;20197;-76
2022/04/23 01:35:12;;;;;;;5.23;2.20;;;;;;;16.79;49.10;93638.81;5070818;28;20186;-76
2022/04/23 01:37:41;;;;;;;4.70;2.30;;;;;;;16.78;49.05;93653.53;5070738;28;20194;-74
2022/04/23 01:40:08;;;;;;;7.60;2.60;;;;;;;16.80;49.08;93643.81;5070488;28;20713;-74
2022/04/23 01:42:35;;;;;;;5.43;2.60;;;;;;;16.80;48.91;93654.13;5070578;28;20773;-74
2022/04/23 01:45:02;;;;;;;2.20;1.90;;;;;;;16.81;49.15;93667.84;5070155;28;20201;-77
2022/04/23 01:47:29;;;;;;;5.73;2.60;;;;;;;16.82;49.02;93655.72;5070960;28;20190;-74
2022/04/23 01:49:55;;;;;;;3.17;2.60;;;;;;;16.82;49.28;93666.03;5070478;28;20188;-75
2022/04/23 01:52:22;;;;;;;4.23;2.20;;;;;;;16.83;49.08;93657.31;5070975;28;20182;-75
2022/04/23 01:54:50;;;;;;;6.33;2.70;;;;;;;16.85;49.08;93663.06;5070171;28;20194;-74
2022/04/23 01:57:17;;;;;;;4.43;2.80;;;;;;;16.87;49.05;93668.81;5070425;28;20182;-74
2022/04/23 01:59:44;;;;;;;5.00;1.93;;;;;;;16.86;49.29;93665.44;5070050;28;20198;-74
2022/04/23 02:02:11;;;;;;;6.67;2.50;;;;;;;16.91;49.12;93680.34;5070338;28;20237;-75
2022/04/23 02:04:38;;;;;;;5.00;2.20;;;;;;;16.88;48.98;93655.72;5070017;28;20205;-75
2022/04/23 02:07:05;;;;;;;5.93;2.63;;;;;;;16.91;49.17;93681.13;5070369;28;20197;-75
2022/04/23 02:09:33;;;;;;;7.03;2.60;;;;;;;16.93;49.18;93684.31;5070246;28;20638;-74
2022/04/23 02:12:01;;;;;;;4.00;2.40;;;;;;;16.93;49.18;93683.53;5070551;28;20666;-74
2022/04/23 02:14:28;;;;;;;2.97;2.10;;;;;;;16.92;49.26;93674.97;5070050;28;20197;-74
2022/04/23 02:16:55;;;;;;;5.60;2.53;;;;;;;16.91;49.27;93688.88;5070206;28;20260;-75
2022/04/23 02:19:22;;;;;;;4.47;2.23;;;;;;;16.92;49.34;93685.28;5070074;28;20182;-74
2022/04/23 02:21:49;;;;;;;4.23;2.37;;;;;;;16.89;49.15;93665.06;5069779;28;20693;-76
2022/04/23 02:24:16;;;;;;;4.20;2.50;;;;;;;16.90;49.28;93676.16;5070017;28;20199;-76
2022/04/23 02:26:43;;;;;;;6.53;2.77;;;;;;;16.90;49.24;93684.72;5069937;28;20214;-75
2022/04/23 02:29:12;;;;;;;3.90;2.20;;;;;;;16.91;49.47;93677.75;5069932;28;20872;-75
2022/04/23 02:31:38;;;;;;;4.97;2.93;;;;;;;16.90;49.18;93669.22;5070086;28;20233;-75
2022/04/23 02:34:05;;;;;;;4.23;2.60;;;;;;;16.89;49.49;93680.53;5069863;28;20194;-75
2022/04/23 02:36:32;;;;;;;5.97;2.57;;;;;;;16.89;49.43;93690.09;5070157;28;20216;-75
2022/04/23 02:39:01;;;;;;;4.23;2.70;;;;;;;16.87;49.45;93697.22;5069806;28;20197;-75
2022/04/23 02:41:28;;;;;;;4.70;2.37;;;;;;;16.87;49.57;93699.81;5069877;28;20248;-75
2022/04/23 02:43:57;;;;;;;5.20;2.47;;;;;;;16.84;49.74;93706.19;5069622;28;20715;-75
2022/04/23 02:46:26;;;;;;;2.47;2.27;;;;;;;16.80;49.79;93705.78;5069723;28;20194;-75
2022/04/23 02:48:55;;;;;;;4.93;2.63;;;;;;;16.78;49.81;93706.97;5069819;28;20247;-75
2022/04/23 02:51:22;;;;;;;5.50;3.03;;;;;;;16.75;49.95;93700.44;5069653;28;20206;-75
2022/04/23 02:53:49;;;;;;;5.83;2.37;;;;;;;16.72;50.02;93700.00;5069690;28;20247;-75
2022/04/23 02:56:17;;;;;;;4.97;2.50;;;;;;;16.75;49.95;93712.50;5070033;28;20178;-75
2022/04/23 02:58:43;;;;;;;5.20;2.53;;;;;;;16.71;49.92;93699.22;5069506;28;20190;-74
2022/04/23 03:01:10;;;;;;;3.83;2.17;;;;;;;16.71;49.88;93696.63;5069721;28;20229;-75
2022/04/23 03:03:40;;;;;;;9.23;2.73;;;;;;;16.69;49.87;93700.38;5069473;28;20646;-75
2022/04/23 03:06:07;;;;;;;7.70;2.87;;;;;;;16.70;49.85;93707.13;5069391;28;20597;-74
2022/04/23 03:08:37;;;;;;;4.50;2.37;;;;;;;16.67;49.97;93697.22;5069517;28;20222;-75
2022/04/23 03:11:06;;;;;;;5.30;2.30;;;;;;;16.63;50.04;93694.25;5071962;28;20214;-75
2022/04/23 03:13:34;;;;;;;6.53;2.53;;;;;;;16.61;50.13;93690.25;5073625;28;20210;-75
2022/04/23 03:16:01;;;;;;;3.90;2.17;;;;;;;16.59;50.16;93694.84;5073294;28;20187;-74
2022/04/23 03:18:28;;;;;;;5.73;2.97;;;;;;;16.59;50.30;93708.53;5073432;28;20389;-76
2022/04/23 03:20:58;;;;;;;2.20;2.00;;;;;;;16.53;50.22;93707.53;5073456;28;20225;-76
2022/04/23 03:23:25;;;;;;;3.80;2.50;;;;;;;16.51;50.45;93709.53;5073161;28;20277;-76
2022/04/23 03:25:52;;;;;;;9.33;2.50;;;;;;;16.49;50.31;93702.97;5073120;28;20658;-75
2022/04/23 03:28:20;;;;;;;4.77;2.67;;;;;;;16.48;50.60;93711.69;5072793;28;20198;-74
2022/04/23 03:30:47;;;;;;;6.80;2.80;;;;;;;16.46;50.56;93704.16;5073340;28;20201;-74
2022/04/23 03:33:14;;;;;;;3.90;2.40;;;;;;;16.44;50.65;93703.56;5073158;28;20190;-75
2022/04/23 03:35:41;;;;;;;7.00;2.73;;;;;;;16.43;50.55;93711.50;5073269;28;20194;-75
2022/04/23 03:38:09;;;;;;;9.47;2.60;;;;;;;16.41;50.60;93710.91;5073366;28;20630;-74
2022/04/23 03:40:36;;;;;;;2.63;2.40;;;;;;;16.40;50.66;93720.41;5073039;28;20688;-75
2022/04/23 03:43:04;;;;;;;3.73;2.40;;;;;;;16.39;50.60;93729.16;5072983;28;20229;-75
2022/04/23 03:45:32;;;;;;;4.53;2.53;;;;;;;16.38;50.58;93734.53;5073026;28;20197;-75
2022/04/23 03:47:59;;;;;;;5.87;2.30;;;;;;;16.37;50.85;93746.63;5072842;28;20233;-75
2022/04/23 03:50:26;;;;;;;4.53;2.40;;;;;;;16.36;50.87;93745.03;5072847;28;20201;-75
2022/04/23 03:52:53;;;;;;;3.20;2.50;;;;;;;16.34;51.10;93739.28;5073025;28;20221;-74
2022/04/23 03:55:21;;;;;;;3.73;2.70;;;;;;;16.20;50.83;93720.41;5072340;28;20197;-74
2022/04/23 03:57:49;;;;;;;5.67;3.07;;;;;;;16.26;50.99;93732.50;5072508;28;20190;-74
2022/04/23 04:00:19;;;;;;;4.23;2.60;;;;;;;16.33;51.08;93744.66;5072394;28;20195;-74
2022/04/23 04:02:46;;;;;;;3.53;2.53;;;;;;;16.34;50.92;93741.84;5072526;28;20309;-74
2022/04/23 04:05:14;;;;;;;3.63;2.73;;;;;;;16.34;51.05;93744.44;5072480;28;20186;-75
2022/04/23 04:07:45;;;;;;;5.53;2.77;;;;;;;16.34;51.02;93744.44;5072609;28;20195;-76
2022/04/23 04:10:14;;;;;;;5.07;2.40;;;;;;;16.33;51.26;93740.28;5072092;28;20225;-74
2022/04/23 04:12:42;;;;;;;5.50;2.53;;;;;;;16.33;51.34;93749.81;5072812;28;20197;-74
2022/04/23 04:15:10;;;;;;;4.10;2.63;;;;;;;16.33;51.26;93740.28;5072136;28;20711;-74
2022/04/23 04:17:38;;;;;;;4.10;2.20;;;;;;;16.32;51.41;93741.28;5072529;28;20289;-74
2022/04/23 04:20:12;;;;;;;9.93;2.67;;;;;;;16.36;51.10;93754.56;5072225;28;20190;-75
2022/04/23 04:22:39;;;;;;;5.60;3.00;;;;;;;16.37;51.33;93749.22;5072114;28;20278;-74
2022/04/23 04:25:07;;;;;;;2.53;2.33;;;;;;;16.37;51.29;93751.00;5072083;28;20750;-75
2022/04/23 04:27:34;;;;;;;11.53;2.70;;;;;;;16.40;51.29;93760.91;5072456;28;20201;-76
2022/04/23 04:30:04;;;;;;;4.13;2.87;;;;;;;16.44;51.32;93762.13;5072215;28;20194;-74
2022/04/23 04:32:31;;;;;;;4.63;2.63;;;;;;;16.46;51.54;93744.66;5072390;28;20198;-74
2022/04/23 04:34:58;;;;;;;5.27;2.90;;;;;;;16.50;51.53;93758.75;5072202;28;20187;-76
2022/04/23 04:37:25;;;;;;;7.43;2.90;;;;;;;16.50;51.50;93756.97;5071723;28;20198;-74
2022/04/23 04:39:52;;;;;;;3.77;2.50;;;;;;;16.57;51.42;93759.53;5072117;28;20214;-75
2022/04/23 04:42:18;;;;;;;4.20;2.70;;;;;;;16.61;51.65;93765.13;5071881;28;20295;-76
2022/04/23 04:44:46;;;;;;;5.50;2.70;;;;;;;16.65;51.71;93771.47;5072067;28;20187;-76
2022/04/23 04:47:14;;;;;;;3.93;2.90;;;;;;;16.65;51.73;93772.25;5071658;28;20271;-74
2022/04/23 04:49:41;;;;;;;5.17;2.83;;;;;;;16.68;52.15;93777.03;5072075;28;20233;-75
2022/04/23 04:52:08;;;;;;;3.67;2.73;;;;;;;16.69;52.04;93776.03;5071336;28;20908;-75
2022/04/23 04:54:35;;;;;;;6.10;3.13;;;;;;;16.74;51.97;93780.66;5072191;28;20286;-75
2022/04/23 04:57:02;;;;;;;6.70;2.87;;;;;;;16.77;52.10;93791.38;5071549;28;20657;-74
2022/04/23 04:59:31;;;;;;;4.03;2.83;;;;;;;16.78;52.57;93789.59;5071797;28;20278;-75
2022/04/23 05:01:59;;;;;;;4.77;3.13;;;;;;;16.82;52.46;93788.19;5071120;28;20218;-74
2022/04/23 05:04:28;;;;;;;8.17;3.30;;;;;;;16.86;52.29;93783.44;5071655;28;20686;-76
2022/04/23 05:06:55;;;;;;;3.83;3.03;;;;;;;16.94;51.94;93798.75;5071257;28;20194;-76
2022/04/23 05:09:22;;;;;;;4.50;3.00;;;;;;;17.02;51.91;93807.09;5071308;28;20222;-77
2022/04/23 05:11:49;;;;;;;3.90;2.90;;;;;;;17.07;51.71;93808.28;5071611;28;20194;-76
2022/04/23 05:14:16;;;;;;;4.67;3.37;;;;;;;17.12;51.95;93819.59;5071190;28;20193;-76
2022/04/23 05:16:43;;;;;;;10.63;3.87;;;;;;;17.15;51.76;93842.47;5071461;28;20194;-76
2022/04/23 05:19:10;;;;;;;5.03;3.67;;;;;;;17.15;52.00;93832.13;5070911;28;20225;-75
2022/04/23 05:21:38;;;;;;;6.50;3.40;;;;;;;17.16;52.04;93840.66;5071460;28;20214;-75
2022/04/23 05:24:06;;;;;;;8.87;3.50;;;;;;;17.18;52.13;93844.63;5070830;28;20194;-75
2022/04/23 05:26:34;;;;;;;7.90;3.97;;;;;;;17.19;52.29;93843.66;5071614;28;20225;-75
2022/04/23 05:29:00;;;;;;;10.87;4.07;;;;;;;17.20;52.09;93845.22;5070706;28;20281;-74
2022/04/23 05:31:27;;;;;;;8.67;4.17;;;;;;;17.22;52.52;93839.84;5070904;28;20289;-75
2022/04/23 05:33:54;;;;;;;9.40;4.40;;;;;;;17.26;52.32;93843.63;5069733;28;20190;-77
2022/04/23 05:36:21;;;;;;;9.57;4.50;;;;;;;17.35;51.99;93846.81;5070960;28;20194;-75
2022/04/23 05:38:49;;;;;;;8.07;4.50;;;;;;;17.43;51.84;93844.81;5070883;28;20197;-76
2022/04/23 05:41:16;;;;;;;7.80;4.43;;;;;;;17.52;51.54;93843.59;5070875;28;20657;-76
2022/04/23 05:43:43;;;;;;;7.27;4.53;;;;;;;17.64;51.52;93850.75;5070623;28;20602;-74
2022/04/23 05:46:10;;;;;;;7.40;4.23;;;;;;;17.75;51.18;93847.59;5070831;28;20190;-75
2022/04/23 05:48:37;;;;;;;8.20;4.50;;;;;;;17.92;51.71;93853.94;5070680;28;20206;-75
2022/04/23 05:51:04;;;;;;;6.27;4.43;;;;;;;18.19;53.44;93846.88;5070540;28;20226;-77
2022/04/23 05:53:31;;;;;;;9.77;3.80;;;;;;;18.59;54.64;93845.88;5070913;28;20205;-77
2022/04/23 05:55:59;;;;;;;7.00;3.80;;;;;;;19.09;55.60;93841.63;5071248;28;20198;-76
2022/04/23 05:58:26;;;;;;;6.50;3.30;;;;;;;19.69;55.49;93839.34;5070553;28;20198;-77
2022/04/23 06:00:54;;;;;;;10.77;3.80;;;;;;;20.36;55.10;93834.19;5070414;28;20658;-76
2022/04/23 06:03:21;;;;;;;5.87;3.50;;;;;;;21.11;53.90;93840.81;5070245;28;20222;-76
2022/04/23 06:05:48;;;;;;;7.23;3.27;;;;;;;21.84;52.64;93839.63;5070006;28;20558;-77
2022/04/23 06:08:15;;;;;;;7.72;3.60;;;;;;;22.54;51.10;93836.91;5070455;28;20198;-77
2022/04/23 06:10:41;;;;;;;6.05;3.65;;;;;;;23.17;49.06;93835.94;5070398;28;20194;-77
2022/04/23 06:13:10;;;;;;;5.28;3.05;;;;;;;23.86;48.02;93840.91;5070428;28;20197;-77
2022/04/23 06:15:39;;;;;;;5.40;2.95;;;;;;;24.45;46.87;93842.97;5070180;28;20198;-76
2022/04/23 06:18:06;;;;;;;6.85;3.10;;;;;;;25.03;45.19;93852.72;5070030;28;20190;-77
2022/04/23 06:20:35;;;;;;;6.47;3.30;;;;;;;25.54;44.38;93855.00;5070286;28;20193;-75
2022/04/23 06:23:04;;;;;;;7.25;3.13;;;;;;;25.92;43.31;93858.44;5069931;28;20226;-75
2022/04/23 06:25:31;;;;;;;4.45;2.97;;;;;;;26.18;42.41;93857.50;5070178;28;20371;-76
2022/04/23 06:27:58;;;;;;;4.38;2.63;;;;;;;26.38;41.36;93863.88;5070224;28;20247;-77
2022/04/23 06:30:26;;;;;;;6.72;2.55;;;;;;;26.65;40.83;93863.78;5070310;28;20665;-77
2022/04/23 06:32:53;;;;;;;8.05;3.10;;;;;;;26.96;40.62;93864.63;5069987;28;20191;-75
2022/04/23 06:35:20;;;;;;;4.25;2.70;;;;;;;27.35;40.70;93864.19;5070057;28;20186;-75
2022/04/23 06:37:47;;;;;;;6.57;3.03;;;;;;;27.77;40.54;93850.78;5069739;28;20198;-77
2022/04/23 06:40:14;;;;;;;3.28;2.65;;;;;;;28.29;40.17;93860.13;5069872;28;20198;-78
2022/04/23 06:42:41;;;;;;;6.95;2.70;;;;;;;28.85;39.79;93865.19;5069745;28;20235;-76
2022/04/23 06:45:09;;;;;;;7.30;2.75;;;;;;;29.46;39.16;93864.81;5072417;28;20190;-77
2022/04/23 06:47:40;;;;;;;5.85;2.90;;;;;;;30.11;38.78;93866.34;5073814;28;20192;-74
2022/04/23 06:50:08;;;;;;;5.20;2.53;;;;;;;30.73;37.88;93867.28;5074112;28;20194;-77
2022/04/23 06:52:35;;;;;;;7.22;2.83;;;;;;;31.29;36.89;93869.16;5074234;28;20197;-75
2022/04/23 06:55:02;;;;;;;3.80;2.28;;;;;;;31.90;36.28;93867.44;5074160;28;20209;-76
2022/04/23 06:57:29;;;;;;;2.95;2.22;;;;;;;32.40;35.34;93876.34;5074082;28;20224;-77
2022/04/23 06:59:56;;;;;;;3.83;2.55;;;;;;;32.87;34.98;93873.56;5073920;28;20197;-75
2022/04/23 07:02:22;;;;;;;3.20;2.40;;;;;;;33.26;33.94;93865.03;5073546;28;20233;-76
2022/04/23 07:04:51;;;;;;;4.40;2.08;;;;;;;33.71;33.30;93873.00;5074034;28;20201;-76
2022/04/23 07:07:17;;;;;;;3.47;2.60;;;;;;;34.08;32.97;93874.50;5074129;28;20194;-75
2022/04/23 07:09:44;;;;;;;5.72;2.33;;;;;;;34.45;32.41;93875.88;5073678;28;20601;-76
2022/04/23 07:12:12;;;;;;;2.85;2.20;;;;;;;34.78;31.66;93870.22;5073809;28;20198;-76
2022/04/23 07:14:39;;;;;;;3.33;2.17;;;;;;;35.17;31.55;93885.31;5073533;28;20190;-76
2022/04/23 07:17:06;;;;;;;5.82;2.15;;;;;;;35.51;31.04;93891.75;5073353;28;20673;-76
2022/04/23 07:19:33;;;;;;;5.20;2.63;;;;;;;35.83;30.42;93895.00;5073143;28;20195;-75
2022/04/23 07:22:01;;;;;;;2.90;2.10;;;;;;;36.12;30.12;93897.78;5073525;28;20250;-75
2022/04/23 07:24:28;;;;;;;5.78;2.30;;;;;;;36.36;29.59;93902.56;5073259;28;20685;-76
2022/04/23 07:26:59;;;;;;;4.68;2.28;;;;;;;36.59;29.31;93905.78;5073302;28;20598;-76
2022/04/23 07:29:26;;;;;;;4.00;2.00;;;;;;;36.83;29.17;93907.06;5072946;28;20202;-74
2022/04/23 07:31:53;;;;;;;4.18;2.38;;;;;;;37.05;28.42;93911.34;5073514;28;20193;-76
2022/04/23 07:39:49;;;;;;;5.88;2.15;;;;;;;37.39;27.42;93921.81;5073248;28;20294;-78
2022/04/23 07:42:16;;;;;;;5.60;2.58;;;;;;;37.38;27.39;93924.78;5072963;28;20271;-76
2022/04/23 07:44:43;;;;;;;3.88;2.35;;;;;;;37.32;27.45;93932.19;5072811;28;20226;-76
2022/04/23 07:47:10;;;;;;;4.43;2.50;;;;;;;37.22;27.15;93932.59;5072858;28;20554;-76
2022/04/23 07:49:37;;;;;;;3.97;2.20;;;;;;;37.13;27.42;93935.28;5072839;28;20213;-76
2022/04/23 07:52:06;;;;;;;4.90;2.47;;;;;;;36.92;27.58;93937.94;5073170;28;20236;-77
2022/04/23 07:54:33;;;;;;;5.38;2.70;;;;;;;36.63;28.12;93945.88;5072656;28;20190;-77
2022/04/23 07:57:00;;;;;;;3.22;2.20;;;;;;;36.30;28.39;93945.66;5071982;28;20190;-77
2022/04/23 07:59:29;;;;;;;6.07;2.30;;;;;;;35.87;28.77;93949.16;5072425;28;20221;-76
2022/04/23 08:01:56;;;;;;;2.78;2.05;;;;;;;35.48;28.38;93940.25;5072836;28;20190;-76
2022/04/23 08:04:23;;;;;;;3.88;2.10;;;;;;;35.15;28.97;93948.66;5072451;28;20281;-76
2022/04/23 08:06:50;;;;;;;4.20;2.30;;;;;;;34.89;28.91;93948.56;5054858;28;20190;-76
2022/04/23 08:09:18;;;;;;;3.78;2.30;;;;;;;34.68;28.57;93947.56;5072276;28;20218;-75
2022/04/23 08:11:48;;;;;;;3.97;2.20;;;;;;;34.49;29.11;93955.75;5072901;28;20187;-76
2022/04/23 08:14:15;;;;;;;2.85;2.15;;;;;;;34.33;29.52;93955.34;5072385;28;20569;-76
2022/04/23 08:16:42;;;;;;;2.60;2.17;;;;;;;34.16;29.90;93958.69;5072693;28;20201;-76
2022/04/23 08:19:09;;;;;;;4.13;1.90;;;;;;;33.98;30.23;93964.19;5072517;28;20194;-77
2022/04/23 08:21:36;;;;;;;3.33;2.13;;;;;;;33.75;30.48;93961.50;5072383;28;20218;-76
2022/04/23 08:24:04;;;;;;;3.22;2.10;;;;;;;33.51;30.54;93956.50;5072327;28;20609;-76
2022/04/23 08:26:32;;;;;;;3.05;2.20;;;;;;;33.16;30.94;93940.25;5072238;28;20192;-77
2022/04/23 08:31:42;;;;;;;3.95;1.90;;;;;;;32.78;30.70;93957.44;5072326;28;20193;-75
2022/04/23 08:34:09;;;;;;;3.30;1.73;;;;;;;32.56;30.94;93960.75;5072048;28;20206;-79
2022/04/23 08:36:36;;;;;;;3.97;1.70;;;;;;;32.38;30.88;93963.16;5071950;28;20194;-75
2022/04/23 08:39:04;;;;;;;2.67;1.95;;;;;;;32.28;31.13;93960.69;5072266;28;20196;-75
2022/04/23 08:41:34;;;;;;;4.90;1.70;;;;;;;32.16;31.48;93969.06;5072336;28;20194;-76
2022/04/23 08:44:06;;;;;;;3.30;1.90;;;;;;;31.97;31.83;93961.19;5072136;28;20607;-76
2022/04/23 08:46:35;;;;;;;1.70;1.50;;;;;;;31.78;32.09;93964.91;5071744;28;20580;-75
2022/04/23 08:49:09;;;;;;;6.32;2.42;;;;;;;31.55;31.94;93970.00;5071993;28;20681;-76
2022/04/23 08:51:38;;;;;;;3.30;1.50;;;;;;;31.38;31.83;93973.16;5071483;28;20194;-76
2022/04/23 08:54:08;;;;;;;3.75;1.63;;;;;;;31.22;32.06;93972.56;5071818;28;20548;-75
2022/04/23 08:56:41;;;;;;;3.65;1.15;;;;;;;31.02;31.89;93972.03;5071706;28;20236;-77
2022/04/23 08:59:09;;;;;;;3.13;1.42;;;;;;;30.80;31.83;93975.19;5071573;28;20685;-75
2022/04/23 09:01:37;;;;;;;2.08;1.40;;;;;;;30.55;32.03;93970.94;5071351;28;20191;-75
2022/04/23 09:04:05;;;;;;;4.63;1.63;;;;;;;30.33;32.30;93977.47;5071332;28;20225;-77
2022/04/23 09:06:40;;;;;;;4.70;1.73;;;;;;;30.12;32.14;93970.78;5071446;28;20190;-75
2022/04/23 09:09:15;;;;;;;2.05;1.58;;;;;;;29.91;32.30;93963.03;5071239;28;20716;-76
2022/04/23 09:11:46;;;;;;;2.35;1.45;;;;;;;29.76;32.52;93951.84;5071263;28;20190;-76
2022/04/23 09:14:31;;;;;;;2.47;1.50;;;;;;;29.74;33.15;93966.06;5071551;28;20194;-75
2022/04/23 09:25:16;;;;;;;3.95;1.63;;;;;;;29.20;33.50;93963.50;5071243;28;20212;-77
2022/04/23 09:27:45;;;;;;;2.05;1.20;;;;;;;29.10;33.49;93974.88;5071229;28;20732;-77
2022/04/23 09:30:13;;;;;;;2.33;1.45;;;;;;;28.97;33.46;93963.09;5070892;28;20191;-75
2022/04/23 09:33:00;;;;;;;5.10;1.60;;;;;;;28.86;33.65;93964.13;5071305;28;20190;-75
2022/04/23 09:35:27;;;;;;;2.45;1.40;;;;;;;28.63;33.78;93949.75;5071026;28;20214;-76
2022/04/23 09:40:38;;;;;;;3.22;1.50;;;;;;;28.42;34.13;93964.03;5071122;28;20277;-74
2022/04/23 09:43:09;;;;;;;4.93;1.60;;;;;;;28.29;35.13;93948.78;5070693;28;20218;-76
2022/04/23 09:45:41;;;;;;;3.03;1.67;;;;;;;28.15;35.53;93930.09;5070949;28;20220;-76
2022/04/23 09:48:19;;;;;;;4.22;1.90;;;;;;;28.04;35.41;93939.84;5070896;28;20635;-77
2022/04/23 09:50:47;;;;;;;2.97;1.60;;;;;;;27.98;35.22;93933.03;5070852;28;20194;-76
2022/04/23 09:53:15;;;;;;;5.65;1.73;;;;;;;27.95;36.02;93926.47;5070665;28;20218;-77
2022/04/23 09:55:43;;;;;;;4.70;1.60;;;;;;;27.93;35.68;93925.91;5070607;28;20190;-77
2022/04/23 09:58:12;;;;;;;3.45;1.52;;;;;;;27.97;35.98;93926.19;5070417;28;20194;-76
2022/04/23 10:00:41;;;;;;;3.47;1.77;;;;;;;28.00;35.89;93931.69;5069986;28;20255;-77
2022/04/23 10:03:09;;;;;;;3.25;1.70;;;;;;;28.04;36.28;93931.19;5070537;28;20228;-76
2022/04/23 10:05:38;;;;;;;3.05;1.50;;;;;;;28.09;36.24;93925.91;5070530;28;20186;-77
2022/04/23 10:08:11;;;;;;;2.63;1.70;;;;;;;28.08;35.87;93925.13;5070139;28;20280;-77
2022/04/23 10:10:44;;;;;;;3.10;1.70;;;;;;;28.11;36.37;93927.22;5070526;28;20247;-76
2022/04/23 10:13:14;;;;;;;2.05;1.58;;;;;;;28.10;36.44;93917.75;5070260;28;20661;-77
2022/04/23 10:15:45;;;;;;;2.42;1.85;;;;;;;28.23;36.54;93919.03;5070277;28;20205;-79
2022/04/23 10:18:13;;;;;;;1.65;1.55;;;;;;;28.30;35.97;93924.81;5070183;28;20197;-76
2022/04/23 10:20:41;;;;;;;2.15;1.90;;;;;;;28.33;36.07;93913.78;5069989;28;20689;-76
2022/04/23 10:23:18;;;;;;;5.60;1.92;;;;;;;28.37;35.48;93912.22;5069954;28;20283;-77
2022/04/23 10:25:51;;;;;;;2.22;1.80;;;;;;;28.37;35.83;93912.22;5070211;28;20511;-77
2022/04/23 10:28:20;;;;;;;2.03;1.55;;;;;;;28.34;36.07;93912.72;5069801;28;20577;-76
2022/04/23 10:30:48;;;;;;;5.03;1.85;;;;;;;28.31;35.73;93902.72;5070056;28;20628;-76
2022/04/23 10:33:26;;;;;;;4.80;2.45;;;;;;;28.26;35.98;93905.38;5069971;28;20214;-77
2022/04/23 10:36:08;;;;;;;7.25;2.28;;;;;;;28.16;35.95;93908.81;5070551;28;20618;-76
2022/04/23 10:38:38;;;;;;;5.47;2.20;;;;;;;28.00;35.80;93894.91;5069824;28;20624;-77
2022/04/23 10:41:05;;;;;;;4.03;1.92;;;;;;;28.03;35.69;93898.06;5070119;28;20670;-78
2022/04/23 10:43:34;;;;;;;3.40;2.33;;;;;;;28.02;35.80;93907.78;5069745;28;20319;-76
2022/04/23 10:46:01;;;;;;;3.33;2.00;;;;;;;28.01;35.57;93901.72;5070090;28;20201;-76
2022/04/23 10:48:29;;;;;;;3.47;2.03;;;;;;;27.97;35.80;93903.31;5069836;28;20248;-76
2022/04/23 10:51:04;;;;;;;2.58;2.00;;;;;;;27.94;35.96;93905.72;5070401;28;20670;-74
2022/04/23 10:53:50;;;;;;;2.53;1.88;;;;;;;27.85;36.09;93907.25;5069861;28;20182;-75
2022/04/23 10:56:19;;;;;;;3.05;2.22;;;;;;;27.71;35.86;93896.47;5069895;28;20190;-75
2022/04/23 10:58:47;;;;;;;3.97;1.98;;;;;;;27.77;35.68;93907.81;5069632;28;20226;-74
2022/04/23 11:01:23;;;;;;;4.10;2.22;;;;;;;27.75;36.06;93908.84;5069728;28;20197;-75
2022/04/23 11:04:12;;;;;;;6.30;2.47;;;;;;;27.77;35.82;93908.59;5069603;28;20225;-75
2022/04/23 11:12:32;;;;;;;3.58;1.60;;;;;;;27.76;36.19;93904.38;5069750;28;20217;-75
2022/04/23 11:15:01;;;;;;;4.32;1.80;;;;;;;27.76;35.76;93907.00;5070042;28;20670;-75
2022/04/23 11:17:53;;;;;;;7.75;2.80;;;;;;;27.69;35.83;93915.13;5069913;28;20252;-75
2022/04/23 11:20:31;;;;;;;8.77;2.55;;;;;;;27.59;35.84;93911.72;5007670;28;20192;-75
2022/04/23 11:22:59;;;;;;;3.03;2.03;;;;;;;27.48;36.21;93911.72;5007792;28;20200;-75
2022/04/23 11:25:26;;;;;;;3.80;2.03;;;;;;;27.38;36.03;93909.09;5007326;28;20192;-75
2022/04/23 11:27:53;;;;;;;5.88;2.47;;;;;;;27.29;36.17;93917.72;5007730;28;20201;-75
2022/04/23 11:30:30;;;;;;;4.65;2.10;;;;;;;27.16;36.01;93916.38;5007354;28;20200;-74
2022/04/23 11:33:10;;;;;;;5.68;2.67;;;;;;;27.00;36.20;93911.09;5011648;28;20212;-75
2022/04/23 11:35:43;;;;;;;5.13;2.25;;;;;;;26.90;36.53;93918.94;5011465;28;20250;-75
2022/04/23 11:38:25;;;;;;;8.02;2.63;;;;;;;26.81;36.37;93909.97;5011372;28;20192;-75
2022/04/23 11:40:51;;;;;;;2.70;2.00;;;;;;;26.80;36.40;93918.91;5011411;28;20623;-76
2022/04/23 11:43:33;;;;;;;6.38;2.30;;;;;;;26.75;36.49;93932.00;5011230;28;20224;-76
2022/04/23 11:46:08;;;;;;;6.80;1.85;;;;;;;26.64;36.85;93915.44;5011311;28;20192;-76
2022/04/23 11:48:46;;;;;;;3.55;2.15;;;;;;;26.62;36.67;93917.53;5010857;28;20192;-77
2022/04/23 11:51:13;;;;;;;2.72;1.85;;;;;;;26.59;36.73;93907.53;5011159;28;20199;-76
2022/04/23 11:53:52;;;;;;;6.03;2.17;;;;;;;26.54;37.03;93897.03;5010826;28;20741;-75
2022/04/23 11:56:23;;;;;;;5.03;2.08;;;;;;;26.55;37.32;93916.16;5017593;28;20703;-75
2022/04/23 11:58:53;;;;;;;5.53;2.30;;;;;;;26.46;37.46;93921.91;5073008;28;20195;-74
2022/04/23 12:01:23;;;;;;;3.83;2.08;;;;;;;26.35;38.15;93924.72;5072757;28;20681;-75
2022/04/23 12:03:51;;;;;;;5.10;1.75;;;;;;;26.22;38.26;93923.34;5072374;28;20315;-76
2022/04/23 12:06:18;;;;;;;5.35;2.15;;;;;;;26.14;38.36;93923.81;5072952;28;20186;-76